Weather observations for the past three days for
Huntingburg
Metric (Imperial)
Date Time (edt) Wind (kph) Vis. (km) Weather Sky Cond. Temperature (ºC) Relative Humidity Wind Chill (°C) Heat Index (°C) Pressure Precipitation (cm)
Air Dwpt 6 hour altimeter (cm) sea level (mb) 1 hr 3 hr 6 hr
Max. Min.
05 08:56 Calm 16.09 Fair CLR 27.2 25 88% 31 76.12 1014.3
05 07:56 NE 7 16.09 Thunderstorm in Vicinity CLR 25 24.4 25.6 23.3 96% 25 76.12 1014.3
05 06:56 Calm 11.27 Fair CLR 23.9 23.9 100% 22 76.05 1013.4
05 05:56 Calm 12.87 Fair CLR 24.4 24.4 100% 24 76.05 1013.3
05 04:56 S 6 16.09 Fair CLR 24.4 24.4 100% 24 76.02 1012.8
05 03:56 Calm 16.09 Fair CLR 24.4 24.4 100% 24 76.02 1012.8
05 02:56 Calm 14.48 Fair CLR 25 25 100% 25 76.05 1013.1
05 01:56 SE 6 16.09 Fair CLR 25.6 25.6 31.7 25.6 100% 27 76.07 1013.5
05 00:56 Calm 16.09 Fair CLR 25.6 25.6 100% 27 76.07 1013.6
04 23:56 Calm 16.09 Fair CLR 26.1 25.6 97% 29 76.07 1013.7
04 22:56 S 6 16.09 Fair CLR 27.8 25.6 88% 33 76.07 1013.7
04 21:56 S 7 16.09 Fair CLR 28.9 25 80% 34 76.07 1013.5
04 20:56 S 7 16.09 Fair CLR 31.1 24.4 68% 37 76.05 1013.2
04 19:56 SE 9 16.09 Fair CLR 31.1 26.1 36.7 31.1 75% 39 76.02 1013.0
04 18:56 Calm 16.09 Fair CLR 34.4 25 58% 42 76.02 1013.0
04 17:56 Calm 16.09 Fair CLR 35.6 24.4 52% 43 76.02 1012.8
04 16:56 Vrbl 11 16.09 A Few Clouds FEW065 36.1 23.9 49% 43 76.05 1013.3
04 15:56 Vrbl 11 16.09 Fair CLR 36.1 23.9 49% 43 76.12 1014.2
04 14:56 NW 7 16.09 A Few Clouds FEW100 34.4 23.3 52% 40 76.2 1015.2
04 13:56 Vrbl 6 16.09 Mostly Cloudy BKN060 35.6 24.4 36.1 22.8 52% 43 76.23 1015.6
04 12:56 NW 7 16.09 Fair CLR 34.4 25 58% 42 76.28 1016.2
04 11:56 Vrbl 6 16.09 Fair CLR 33.9 23.9 56% 40 76.28 1016.3
04 10:56 W 9 16.09 Fair CLR 32.8 23.3 57% 38 76.28 1016.3
04 09:56 S 6 16.09 Fair CLR 30 25.6 77% 37 76.28 1016.2
04 08:56 Calm 11.27 Fair CLR 26.7 26.1 97% 30 76.25 1016.1
04 07:56 Calm 8.05 Fog/Mist CLR 22.8 22.8 25 22.2 100% 76.23 1015.7
04 06:56 Calm 9.66 Fog/Mist CLR 22.8 22.8 100% 76.2 1015.3
04 05:56 Calm 2.01 Fog/Mist CLR 22.8 22.8 100% 76.2 1015.1
04 04:56 Calm 9.66 Fog/Mist CLR 23.3 23.3 100% 76.17 1014.8
04 03:56 Calm 9.66 Fog/Mist CLR 23.3 23.3 100% 76.15 1014.6
04 02:56 SE 6 16.09 Fair CLR 24.4 24.4 100% 24 76.15 1014.7
04 01:56 Calm 16.09 Fair CLR 23.9 23.9 32.2 23.9 100% 22 76.17 1015.0
04 00:56 Calm 16.09 Fair CLR 25.6 25 97% 27 76.17 1015.0
03 23:56 Calm 16.09 Fair CLR 26.1 25 94% 28 76.17 1014.9
03 22:56 SE 6 16.09 Fair CLR 26.7 25 90% 30 76.2 1015.2
03 21:56 SE 7 16.09 Fair CLR 28.9 24.4 77% 34 76.15 1014.8
03 20:56 SE 7 16.09 Fair CLR 30 24.4 72% 36 76.12 1014.4
03 19:56 SE 6 16.09 Fair CLR 32.2 24.4 37.2 32.2 63% 39 76.1 1014.0
03 18:56 SE 9 16.09 Fair CLR 35 23.3 51% 41 76.07 1013.7
03 17:56 SW 11 16.09 A Few Clouds FEW075 36.1 21.7 43% 41 76.07 1013.7
03 16:56 S 13 16.09 Partly Cloudy FEW075 SCT095 36.1 22.2 45% 41 76.12 1014.2
03 15:56 SW 11 16.09 A Few Clouds FEW075 36.1 21.1 42% 40 76.15 1014.7
03 14:56 Vrbl 9 16.09 Fair CLR 36.1 22.2 45% 41 76.2 1015.2
03 13:56 Vrbl 11 16.09 A Few Clouds FEW065 35 22.2 36.1 22.8 47% 40 76.25 1015.8
03 12:56 Vrbl 7 16.09 Fair CLR 35 23.3 51% 41 76.28 1016.4
03 11:56 S 9 16.09 Fair CLR 33.3 23.9 58% 39 76.33 1016.9
03 10:56 S 9 16.09 Fair CLR 31.7 23.9 63% 37 76.33 1016.9
03 09:56 S 9 16.09 Fair CLR 28.9 24.4 77% 34 76.33 1017.2
03 08:56 SE 6 16.09 Fair CLR 26.1 24.4 90% 28 76.35 1017.3
03 07:56 SE 6 16.09 Fair CLR 22.8 22.8 24.4 22.2 100% 76.33 1017.1
03 06:56 Calm 16.09 Fair CLR 22.8 22.8 100% 76.3 1016.8
03 05:56 SE 6 16.09 Fair CLR 22.8 22.8 100% 76.3 1016.6
03 04:56 Calm 16.09 Fair CLR 22.8 22.8 100% 76.28 1016.4
03 03:56 Calm 16.09 Fair CLR 22.8 22.8 100% 76.28 1016.1
03 02:56 SE 6 16.09 Fair CLR 23.3 23.3 100% 76.25 1015.9
03 01:56 Calm 16.09 Fair CLR 23.9 23.9 32.8 23.9 100% 22 76.25 1016.0
03 00:56 SE 7 16.09 Fair CLR 25 24.4 96% 25 76.25 1015.9
02 23:56 Calm 16.09 Fair CLR 26.1 24.4 90% 28 76.23 1015.7
02 22:56 SE 6 16.09 Fair CLR 26.7 24.4 87% 30 76.25 1015.9
02 21:56 SE 6 16.09 Fair CLR 27.8 24.4 82% 32 76.23 1015.7
02 20:56 S 9 16.09 Fair CLR 29.4 24.4 75% 35 76.2 1015.4
02 19:56 SE 7 16.09 A Few Clouds FEW070 32.8 23.9 36.7 32.8 59% 39 76.2 1015.4
02 18:56 S 11 16.09 A Few Clouds FEW065 35 22.2 47% 40 76.2 1015.3
02 17:56 S 7 16.09 Fair CLR 35 22.8 49% 40 76.2 1015.5
02 16:56 SW 13 16.09 A Few Clouds FEW070 36.1 22.2 45% 41 76.23 1015.7
02 15:56 S 9 16.09 Fair CLR 36.1 21.7 43% 41 76.28 1016.2
02 14:56 Vrbl 6 16.09 Partly Cloudy SCT065 36.1 22.2 45% 41 76.33 1016.9
02 13:56 SW 13 16.09 Mostly Cloudy BKN060 36.1 22.8 36.1 22.8 46% 42 76.35 1017.3
02 12:56 SW 11 16.09 Fair CLR 34.4 23.3 52% 40 76.4 1018.0
02 11:56 SW 13 16.09 Fair CLR 33.3 23.3 56% 39 76.43 1018.4
02 10:56 SW 9 16.09 Fair CLR 31.1 23.9 66% 37 76.45 1018.7
02 09:56 S 9 16.09 Fair CLR 28.9 25 80% 34 76.45 1018.9
Date Time (edt) Wind (kph) Vis. (km) Weather Sky Cond. Air Dwpt Max. Min. Relative Humidity Wind Chill (°C) Heat Index (°C) altimeter (cm) sea level (mb) 1 hr 3 hr 6 hr
6 hour
Temperature (ºC) Pressure Precipitation (cm)